Time;durP1;ratioP1;P1;durP2;ratioP2;P2;SDS_P1;SDS_P2;PMS_P1;PMS_P2;Temp;Humidity;BMP_temperature;BMP_pressure;BME280_temperature;BME280_humidity;BME280_pressure;Samples;Min_cycle;Max_cycle;Signal;HPM_P1;HPM_P2
2024/04/01 00:00:43;;;;;;;0.65;0.35;;;;;;;;;;5014732;28;20485;-86
2024/04/01 00:03:09;;;;;;;0.22;0.22;;;;;;;;;;5014679;28;20041;-86
2024/04/01 00:05:35;;;;;;;0.20;0.20;;;;;;;;;;5014763;28;20107;-86
2024/04/01 00:08:01;;;;;;;0.20;0.20;;;;;;;;;;5030934;28;20045;-86
2024/04/01 00:10:28;;;;;;;0.30;0.30;;;;;;;;;;5030996;28;20040;-86
2024/04/01 00:12:54;;;;;;;0.10;0.10;;;;;;;;;;4997990;28;20056;-86
2024/04/01 00:15:22;;;;;;;0.10;0.10;;;;;;;;;;5031029;28;20041;-86
2024/04/01 00:17:48;;;;;;;0.20;0.20;;;;;;;;;;4998646;28;20064;-86
2024/04/01 00:20:14;;;;;;;0.30;0.30;;;;;;;;;;4998206;28;20049;-86
2024/04/01 00:22:40;;;;;;;0.43;0.20;;;;;;;;;;4998178;28;20041;-86
2024/04/01 00:25:06;;;;;;;0.10;0.10;;;;;;;;;;5030800;28;20037;-86
2024/04/01 00:27:32;;;;;;;0.20;0.20;;;;;;;;;;5014489;28;20048;-86
2024/04/01 00:29:58;;;;;;;0.10;0.10;;;;;;;;;;5030790;28;20080;-86
2024/04/01 00:32:24;;;;;;;0.10;0.10;;;;;;;;;;4998376;28;20469;-86
2024/04/01 00:34:50;;;;;;;0.63;0.63;;;;;;;;;;5014275;28;20029;-86
2024/04/01 00:37:16;;;;;;;0.10;0.10;;;;;;;;;;4998076;28;20472;-87
2024/04/01 00:39:42;;;;;;;0.20;0.20;;;;;;;;;;4997941;28;20045;-87
2024/04/01 00:42:08;;;;;;;0.20;0.20;;;;;;;;;;4997991;28;20477;-87
2024/04/01 00:44:34;;;;;;;0.20;0.20;;;;;;;;;;4998200;28;20042;-86
2024/04/01 00:47:00;;;;;;;0.10;0.10;;;;;;;;;;5014235;28;20069;-86
2024/04/01 00:49:26;;;;;;;0.28;0.25;;;;;;;;;;5014185;28;20062;-86
2024/04/01 00:51:52;;;;;;;0.10;0.10;;;;;;;;;;5014219;28;20336;-86
2024/04/01 00:54:18;;;;;;;0.10;0.10;;;;;;;;;;4997980;28;20049;-86
2024/04/01 00:56:45;;;;;;;1.27;0.73;;;;;;;;;;5030524;28;20041;-86
2024/04/01 00:59:11;;;;;;;0.10;0.10;;;;;;;;;;5030549;28;20095;-86
2024/04/01 01:01:37;;;;;;;0.10;0.10;;;;;;;;;;5014421;28;20146;-86
2024/04/01 01:04:04;;;;;;;0.10;0.10;;;;;;;;;;5030512;28;20512;-86
2024/04/01 01:06:30;;;;;;;0.17;0.17;;;;;;;;;;5014458;28;20124;-86
2024/04/01 01:08:56;;;;;;;0.10;0.10;;;;;;;;;;5013949;28;20187;-86
2024/04/01 01:11:22;;;;;;;0.10;0.10;;;;;;;;;;5030386;28;20037;-86
2024/04/01 01:13:49;;;;;;;0.20;0.20;;;;;;;;;;5014410;28;20037;-86
2024/04/01 01:16:15;;;;;;;0.10;0.10;;;;;;;;;;5030378;28;20038;-86
2024/04/01 01:18:41;;;;;;;0.15;0.15;;;;;;;;;;5030633;28;20068;-86
2024/04/01 01:21:08;;;;;;;0.10;0.10;;;;;;;;;;5030336;28;20469;-86
2024/04/01 01:23:34;;;;;;;0.20;0.20;;;;;;;;;;4997706;28;20585;-86
2024/04/01 01:26:01;;;;;;;0.10;0.10;;;;;;;;;;5034087;28;20436;-85
2024/04/01 01:28:27;;;;;;;0.10;0.10;;;;;;;;;;5033971;28;20527;-85
2024/04/01 01:30:53;;;;;;;0.10;0.10;;;;;;;;;;5017475;28;20037;-86
2024/04/01 01:33:19;;;;;;;0.10;0.10;;;;;;;;;;5001108;28;20045;-86
2024/04/01 01:35:45;;;;;;;0.20;0.20;;;;;;;;;;5017436;28;20067;-86
2024/04/01 01:38:16;;;;;;;0.10;0.10;;;;;;;;;;5017428;28;20037;-85
2024/04/01 01:40:42;;;;;;;0.13;0.13;;;;;;;;;;5018199;28;20559;-86
2024/04/01 01:43:08;;;;;;;0.10;0.10;;;;;;;;;;5001007;28;20042;-86
2024/04/01 01:45:34;;;;;;;0.10;0.10;;;;;;;;;;5017307;28;20172;-85
2024/04/01 01:48:00;;;;;;;0.20;0.20;;;;;;;;;;5000863;28;20154;-85
2024/04/01 01:50:26;;;;;;;0.10;0.10;;;;;;;;;;5016957;28;20454;-86
2024/04/01 01:52:52;;;;;;;0.10;0.10;;;;;;;;;;5017066;28;20048;-87
2024/04/01 01:55:18;;;;;;;0.10;0.10;;;;;;;;;;5033517;28;20064;-86
2024/04/01 01:57:44;;;;;;;0.10;0.10;;;;;;;;;;5033763;28;20409;-86
2024/04/01 02:00:13;;;;;;;0.10;0.10;;;;;;;;;;5000634;28;20045;-86
2024/04/01 02:02:42;;;;;;;0.10;0.10;;;;;;;;;;5017672;28;20049;-86
2024/04/01 02:05:08;;;;;;;0.10;0.10;;;;;;;;;;5000762;28;20045;-86
2024/04/01 02:07:34;;;;;;;0.10;0.10;;;;;;;;;;5017082;28;20049;-86
2024/04/01 02:10:01;;;;;;;0.10;0.10;;;;;;;;;;5000591;28;20043;-86
2024/04/01 02:12:27;;;;;;;0.20;0.20;;;;;;;;;;5016949;28;20064;-86
2024/04/01 02:14:53;;;;;;;0.17;0.17;;;;;;;;;;5033053;28;20037;-86
2024/04/01 02:17:19;;;;;;;0.20;0.20;;;;;;;;;;5016688;28;20073;-85
2024/04/01 02:19:45;;;;;;;0.20;0.20;;;;;;;;;;5016590;28;20084;-86
2024/04/01 02:22:14;;;;;;;0.10;0.10;;;;;;;;;;5000453;28;20124;-87
2024/04/01 02:24:40;;;;;;;0.30;0.30;;;;;;;;;;5017348;28;20147;-86
2024/04/01 02:27:06;;;;;;;0.10;0.10;;;;;;;;;;5000580;28;20492;-86
2024/04/01 02:29:33;;;;;;;0.68;0.20;;;;;;;;;;5000319;28;20171;-85
2024/04/01 02:31:59;;;;;;;0.20;0.20;;;;;;;;;;5016392;28;20041;-85
2024/04/01 02:34:25;;;;;;;0.10;0.10;;;;;;;;;;5016289;28;20041;-85
2024/04/01 02:36:51;;;;;;;0.10;0.10;;;;;;;;;;5032290;28;20037;-86
2024/04/01 02:39:17;;;;;;;0.10;0.10;;;;;;;;;;5016348;28;20099;-85
2024/04/01 02:41:46;;;;;;;0.10;0.10;;;;;;;;;;5016259;28;20049;-85
2024/04/01 02:44:12;;;;;;;0.10;0.10;;;;;;;;;;5016373;28;20560;-86
2024/04/01 02:46:39;;;;;;;0.10;0.10;;;;;;;;;;4999894;28;20090;-86
2024/04/01 02:49:05;;;;;;;0.10;0.10;;;;;;;;;;5016035;28;20060;-87
2024/04/01 02:51:31;;;;;;;0.10;0.10;;;;;;;;;;4999676;28;20413;-87
2024/04/01 02:53:57;;;;;;;0.10;0.10;;;;;;;;;;4999715;28;20473;-87
2024/04/01 02:56:23;;;;;;;0.20;0.20;;;;;;;;;;5015881;28;20048;-87
2024/04/01 02:58:49;;;;;;;0.10;0.10;;;;;;;;;;5016236;28;20041;-86
2024/04/01 03:01:18;;;;;;;0.20;0.20;;;;;;;;;;5015842;28;20049;-87
2024/04/01 03:03:45;;;;;;;0.20;0.20;;;;;;;;;;5032259;28;20052;-87
2024/04/01 03:06:11;;;;;;;0.20;0.20;;;;;;;;;;4999889;28;20045;-86
2024/04/01 03:08:38;;;;;;;0.10;0.10;;;;;;;;;;5032228;28;20567;-86
2024/04/01 03:11:04;;;;;;;0.13;0.13;;;;;;;;;;4999852;28;20041;-86
2024/04/01 03:13:31;;;;;;;0.10;0.10;;;;;;;;;;5015694;28;20037;-86
2024/04/01 03:15:57;;;;;;;0.10;0.10;;;;;;;;;;5015519;28;20384;-86
2024/04/01 03:18:23;;;;;;;0.10;0.10;;;;;;;;;;4999269;28;20573;-87
2024/04/01 03:20:49;;;;;;;0.10;0.10;;;;;;;;;;5015591;28;20048;-86
2024/04/01 03:23:15;;;;;;;0.10;0.10;;;;;;;;;;4999116;28;20065;-87
2024/04/01 03:25:42;;;;;;;0.20;0.20;;;;;;;;;;5015435;28;20048;-87
2024/04/01 03:28:08;;;;;;;0.17;0.17;;;;;;;;;;5015617;28;20378;-87
2024/04/01 03:30:34;;;;;;;0.10;0.10;;;;;;;;;;5015218;28;20080;-88
2024/04/01 03:33:00;;;;;;;0.10;0.10;;;;;;;;;;5015438;28;20025;-87
2024/04/01 03:35:29;;;;;;;0.47;0.47;;;;;;;;;;5015011;28;20036;-87
2024/04/01 03:37:55;;;;;;;0.10;0.10;;;;;;;;;;5031586;28;20099;-87
2024/04/01 03:40:21;;;;;;;0.10;0.10;;;;;;;;;;4998782;28;20053;-87
2024/04/01 03:42:46;;;;;;;0.10;0.10;;;;;;;;;;5015233;28;20037;-87
2024/04/01 03:45:13;;;;;;;0.20;0.20;;;;;;;;;;5014857;28;20049;-87
2024/04/01 03:47:38;;;;;;;0.10;0.10;;;;;;;;;;4998743;28;20096;-87
2024/04/01 03:50:11;;;;;;;0.10;0.10;;;;;;;;;;5014928;28;20147;-87
2024/04/01 03:52:37;;;;;;;0.13;0.13;;;;;;;;;;5015017;28;20044;-86
2024/04/01 03:55:03;;;;;;;0.10;0.10;;;;;;;;;;5014945;28;20041;-86
2024/04/01 03:57:29;;;;;;;0.10;0.10;;;;;;;;;;5015052;28;20553;-86
2024/04/01 03:59:55;;;;;;;0.10;0.10;;;;;;;;;;4998475;28;20077;-86
2024/04/01 04:02:21;;;;;;;0.10;0.10;;;;;;;;;;5031159;28;20052;-87
2024/04/01 04:04:47;;;;;;;0.10;0.10;;;;;;;;;;5031138;28;20045;-86
2024/04/01 04:07:13;;;;;;;0.20;0.20;;;;;;;;;;5014807;28;20408;-86
2024/04/01 04:09:39;;;;;;;0.10;0.10;;;;;;;;;;5014747;28;20042;-86
2024/04/01 04:12:06;;;;;;;0.10;0.10;;;;;;;;;;5030887;28;20044;-86
2024/04/01 04:14:32;;;;;;;0.10;0.10;;;;;;;;;;5014588;28;20649;-87
2024/04/01 04:16:58;;;;;;;0.10;0.10;;;;;;;;;;5031003;28;20077;-86
2024/04/01 04:19:25;;;;;;;0.10;0.10;;;;;;;;;;4998311;28;20084;-86
2024/04/01 04:21:51;;;;;;;0.10;0.10;;;;;;;;;;5030856;28;20075;-87
2024/04/01 04:24:18;;;;;;;0.10;0.10;;;;;;;;;;5014639;28;20033;-87
2024/04/01 04:26:44;;;;;;;0.10;0.10;;;;;;;;;;5014609;28;20045;-87
2024/04/01 04:29:10;;;;;;;0.10;0.10;;;;;;;;;;5014733;28;20046;-87
2024/04/01 04:31:36;;;;;;;0.30;0.30;;;;;;;;;;5014414;28;20037;-86
2024/04/01 04:34:02;;;;;;;0.10;0.10;;;;;;;;;;5014442;28;20096;-86
2024/04/01 04:36:28;;;;;;;0.10;0.10;;;;;;;;;;5014416;28;20561;-86
2024/04/01 04:38:54;;;;;;;0.10;0.10;;;;;;;;;;5014534;28;20042;-86
2024/04/01 04:41:21;;;;;;;0.10;0.10;;;;;;;;;;5014217;28;20491;-86
2024/04/01 04:43:47;;;;;;;0.10;0.10;;;;;;;;;;4998187;28;20120;-86
2024/04/01 04:46:13;;;;;;;0.10;0.10;;;;;;;;;;5014515;28;20069;-87
2024/04/01 04:48:42;;;;;;;0.10;0.10;;;;;;;;;;5014160;28;20049;-86
2024/04/01 04:51:09;;;;;;;0.38;0.20;;;;;;;;;;5030502;28;20095;-86
2024/04/01 04:53:35;;;;;;;0.10;0.10;;;;;;;;;;5014342;28;20112;-87
2024/04/01 04:56:01;;;;;;;0.10;0.10;;;;;;;;;;5014127;28;20482;-86
2024/04/01 04:58:27;;;;;;;0.43;0.43;;;;;;;;;;4997882;28;20552;-86
2024/04/01 05:00:53;;;;;;;0.10;0.10;;;;;;;;;;5001140;28;20084;-86
2024/04/01 05:03:19;;;;;;;0.35;0.35;;;;;;;;;;5018144;28;20045;-86
2024/04/01 05:05:45;;;;;;;0.13;0.13;;;;;;;;;;5001729;28;20099;-87
2024/04/01 05:08:11;;;;;;;0.10;0.10;;;;;;;;;;5018132;28;20068;-86
2024/04/01 05:10:37;;;;;;;0.10;0.10;;;;;;;;;;5017781;28;20038;-85
2024/04/01 05:13:03;;;;;;;0.10;0.10;;;;;;;;;;5017888;28;20069;-86
2024/04/01 05:15:29;;;;;;;0.15;0.15;;;;;;;;;;5034275;28;20041;-86
2024/04/01 05:17:56;;;;;;;0.10;0.10;;;;;;;;;;5017940;28;20041;-85
2024/04/01 05:20:22;;;;;;;0.20;0.20;;;;;;;;;;5001626;28;20427;-85
2024/04/01 05:22:48;;;;;;;0.10;0.10;;;;;;;;;;5001448;28;20052;-86
2024/04/01 05:25:14;;;;;;;0.10;0.10;;;;;;;;;;5001383;28;20053;-86
2024/04/01 05:27:40;;;;;;;0.10;0.10;;;;;;;;;;5017645;28;20085;-87
2024/04/01 05:30:09;;;;;;;0.10;0.10;;;;;;;;;;5017398;28;20523;-87
2024/04/01 05:32:35;;;;;;;0.10;0.10;;;;;;;;;;5001743;28;20139;-86
2024/04/01 05:35:01;;;;;;;0.10;0.10;;;;;;;;;;5017603;28;20473;-86
2024/04/01 05:37:27;;;;;;;0.10;0.10;;;;;;;;;;5017365;28;20045;-86
2024/04/01 05:39:53;;;;;;;0.10;0.10;;;;;;;;;;5017431;28;20481;-87
2024/04/01 05:42:19;;;;;;;0.20;0.20;;;;;;;;;;5001160;28;20043;-87
2024/04/01 05:44:45;;;;;;;0.10;0.10;;;;;;;;;;5017569;28;20037;-87
2024/04/01 05:47:11;;;;;;;0.10;0.10;;;;;;;;;;5017276;28;20072;-86
2024/04/01 05:49:37;;;;;;;0.10;0.10;;;;;;;;;;5017223;28;20060;-86
2024/04/01 05:52:05;;;;;;;0.20;0.20;;;;;;;;;;5017116;28;20042;-86
2024/04/01 05:54:31;;;;;;;0.10;0.10;;;;;;;;;;5017162;28;20064;-86
2024/04/01 05:56:57;;;;;;;0.10;0.10;;;;;;;;;;5017212;28;20045;-86
2024/04/01 05:59:23;;;;;;;0.17;0.17;;;;;;;;;;5000786;28;20143;-86
2024/04/01 06:01:49;;;;;;;0.30;0.22;;;;;;;;;;5017287;28;20390;-85
2024/04/01 06:04:15;;;;;;;0.20;0.20;;;;;;;;;;5001029;28;20041;-86
2024/04/01 06:06:41;;;;;;;0.10;0.10;;;;;;;;;;5016902;28;20482;-86
2024/04/01 06:09:07;;;;;;;0.10;0.10;;;;;;;;;;5016719;28;20124;-84
2024/04/01 06:11:33;;;;;;;0.10;0.10;;;;;;;;;;5015638;28;20116;-85
2024/04/01 06:13:59;;;;;;;0.13;0.13;;;;;;;;;;5016785;28;20038;-85
2024/04/01 06:16:26;;;;;;;0.10;0.10;;;;;;;;;;5016883;28;20465;-85
2024/04/01 06:18:52;;;;;;;0.10;0.10;;;;;;;;;;5013521;28;20053;-85
2024/04/01 06:21:18;;;;;;;0.20;0.20;;;;;;;;;;5016454;28;20125;-85
2024/04/01 06:23:46;;;;;;;0.10;0.10;;;;;;;;;;5016408;28;20489;-85
2024/04/01 06:26:12;;;;;;;0.20;0.20;;;;;;;;;;5016471;28;20048;-85
2024/04/01 06:28:39;;;;;;;0.20;0.20;;;;;;;;;;5016294;28;20045;-85
2024/04/01 06:31:05;;;;;;;0.10;0.10;;;;;;;;;;4999986;28;20128;-85
2024/04/01 06:33:33;;;;;;;0.10;0.10;;;;;;;;;;5032786;28;20096;-85
2024/04/01 06:36:02;;;;;;;0.10;0.10;;;;;;;;;;5016466;28;20049;-84
2024/04/01 06:38:29;;;;;;;0.10;0.10;;;;;;;;;;5016663;28;20455;-84
2024/04/01 06:40:55;;;;;;;0.32;0.32;;;;;;;;;;5000087;28;20041;-85
2024/04/01 06:43:21;;;;;;;0.10;0.10;;;;;;;;;;5016392;28;20087;-86
2024/04/01 06:45:54;;;;;;;0.10;0.10;;;;;;;;;;5016423;28;20045;-85
2024/04/01 06:48:20;;;;;;;;;;;;;;;;;;5016427;28;20056;-85
2024/04/01 06:50:46;;;;;;;0.20;0.20;;;;;;;;;;5034161;28;19921;-86
2024/04/01 06:53:12;;;;;;;0.10;0.10;;;;;;;;;;5032439;28;20037;-87
2024/04/01 06:55:38;;;;;;;0.10;0.10;;;;;;;;;;5032673;28;20034;-84
2024/04/01 06:58:06;;;;;;;0.20;0.20;;;;;;;;;;4999724;28;20045;-86
2024/04/01 07:00:33;;;;;;;0.30;0.30;;;;;;;;;;4999774;28;20060;-85
2024/04/01 07:02:59;;;;;;;0.10;0.10;;;;;;;;;;5015943;28;20041;-86
2024/04/01 07:05:25;;;;;;;0.10;0.10;;;;;;;;;;4999318;28;20133;-86
2024/04/01 07:07:51;;;;;;;0.10;0.10;;;;;;;;;;5016156;28;20370;-86
2024/04/01 07:10:17;;;;;;;0.10;0.10;;;;;;;;;;5015694;28;20040;-86
2024/04/01 07:12:43;;;;;;;0.10;0.10;;;;;;;;;;5015629;28;20045;-85
2024/04/01 07:15:09;;;;;;;0.15;0.15;;;;;;;;;;5032041;28;20046;-85
2024/04/01 07:17:36;;;;;;;0.10;0.10;;;;;;;;;;5015752;28;20393;-86
2024/04/01 07:20:03;;;;;;;0.20;0.20;;;;;;;;;;5031642;28;20102;-84
2024/04/01 07:22:28;;;;;;;0.10;0.10;;;;;;;;;;5031592;28;20103;-85
2024/04/01 07:24:54;;;;;;;0.10;0.10;;;;;;;;;;5015409;28;20045;-88
2024/04/01 07:27:21;;;;;;;0.20;0.20;;;;;;;;;;5015465;28;20041;-84
2024/04/01 07:29:47;;;;;;;0.20;0.20;;;;;;;;;;5015197;28;20037;-85
2024/04/01 07:32:13;;;;;;;0.10;0.10;;;;;;;;;;5031628;28;20378;-85
2024/04/01 07:34:38;;;;;;;0.20;0.20;;;;;;;;;;4998899;28;20053;-86
2024/04/01 07:37:08;;;;;;;0.55;0.43;;;;;;;;;;5015310;28;20045;-85
2024/04/01 07:39:33;;;;;;;0.10;0.10;;;;;;;;;;5015182;28;20041;-85
2024/04/01 07:42:00;;;;;;;0.10;0.10;;;;;;;;;;5015193;28;20048;-85
2024/04/01 07:44:26;;;;;;;0.20;0.20;;;;;;;;;;5015167;28;20045;-86
2024/04/01 07:46:52;;;;;;;0.20;0.20;;;;;;;;;;5014790;28;20148;-86
2024/04/01 07:49:17;;;;;;;0.10;0.10;;;;;;;;;;5031197;28;20053;-84
2024/04/01 07:51:43;;;;;;;0.17;0.17;;;;;;;;;;5030759;28;20045;-84
2024/04/01 07:54:09;;;;;;;0.30;0.30;;;;;;;;;;5014547;28;20048;-84
2024/04/01 07:56:36;;;;;;;0.10;0.10;;;;;;;;;;5031482;28;20037;-84
2024/04/01 07:59:02;;;;;;;0.57;0.50;;;;;;;;;;5014709;28;20068;-84
2024/04/01 08:01:28;;;;;;;0.10;0.10;;;;;;;;;;5014442;28;20473;-84
2024/04/01 08:03:54;;;;;;;0.20;0.20;;;;;;;;;;5015040;28;20049;-84
2024/04/01 08:06:20;;;;;;;0.10;0.10;;;;;;;;;;5031100;28;20045;-85
2024/04/01 08:08:46;;;;;;;0.55;0.20;;;;;;;;;;5031124;28;20093;-85
2024/04/01 08:11:12;;;;;;;0.10;0.10;;;;;;;;;;5030629;28;20464;-84
2024/04/01 08:13:38;;;;;;;0.10;0.10;;;;;;;;;;5014565;28;20143;-85
2024/04/01 08:16:05;;;;;;;0.10;0.10;;;;;;;;;;5014369;28;20100;-85
2024/04/01 08:18:31;;;;;;;0.10;0.10;;;;;;;;;;5014702;28;20402;-86
2024/04/01 08:20:58;;;;;;;0.10;0.10;;;;;;;;;;5014081;28;20549;-86
2024/04/01 08:23:24;;;;;;;0.10;0.10;;;;;;;;;;5014317;28;20471;-86
2024/04/01 08:25:50;;;;;;;0.20;0.20;;;;;;;;;;5014549;28;20162;-86
2024/04/01 08:28:17;;;;;;;0.10;0.10;;;;;;;;;;5030410;28;20041;-86
2024/04/01 08:30:43;;;;;;;0.10;0.10;;;;;;;;;;5014342;28;20109;-86
2024/04/01 08:33:09;;;;;;;0.20;0.20;;;;;;;;;;5014042;28;20076;-86
2024/04/01 08:35:35;;;;;;;0.10;0.10;;;;;;;;;;4997191;28;20116;-86
2024/04/01 08:38:02;;;;;;;0.10;0.10;;;;;;;;;;4997755;28;20474;-86
2024/04/01 08:40:30;;;;;;;0.10;0.10;;;;;;;;;;5014139;28;20073;-84
2024/04/01 08:42:57;;;;;;;0.10;0.10;;;;;;;;;;5014092;28;20033;-84
2024/04/01 08:45:23;;;;;;;0.20;0.20;;;;;;;;;;4997651;28;20081;-85
2024/04/01 08:47:50;;;;;;;0.20;0.20;;;;;;;;;;5014224;28;20484;-84
2024/04/01 08:50:19;;;;;;;0.10;0.10;;;;;;;;;;5029992;28;20512;-86
2024/04/01 08:53:25;;;;;;;0.17;0.17;;;;;;;;;;4997727;28;20216;-86
2024/04/01 08:55:51;;;;;;;0.10;0.10;;;;;;;;;;5030000;28;20037;-86
2024/04/01 08:58:17;;;;;;;0.10;0.10;;;;;;;;;;5013878;28;20037;-86
2024/04/01 09:00:44;;;;;;;0.10;0.10;;;;;;;;;;5029747;28;20030;-87
2024/04/01 09:03:10;;;;;;;0.20;0.20;;;;;;;;;;5013949;28;20123;-86
2024/04/01 09:05:36;;;;;;;0.10;0.10;;;;;;;;;;5013800;28;20168;-86
2024/04/01 09:08:02;;;;;;;0.20;0.20;;;;;;;;;;5013334;28;20041;-86
2024/04/01 09:10:28;;;;;;;0.10;0.10;;;;;;;;;;4997431;28;20105;-86
2024/04/01 09:12:55;;;;;;;0.10;0.10;;;;;;;;;;5013521;28;20057;-86
2024/04/01 09:15:24;;;;;;;0.15;0.15;;;;;;;;;;5030552;28;20079;-87
2024/04/01 09:17:50;;;;;;;0.20;0.20;;;;;;;;;;5014047;28;20124;-89
2024/04/01 09:20:16;;;;;;;0.80;0.73;;;;;;;;;;5013116;28;20126;-88
2024/04/01 09:22:42;;;;;;;0.10;0.10;;;;;;;;;;5013444;28;20044;-89
2024/04/01 09:25:08;;;;;;;0.10;0.10;;;;;;;;;;4997891;28;20052;-89
2024/04/01 09:27:34;;;;;;;0.10;0.10;;;;;;;;;;5013787;28;20034;-88
2024/04/01 09:30:00;;;;;;;0.10;0.10;;;;;;;;;;5013137;28;20045;-88
2024/04/01 09:32:26;;;;;;;0.40;0.20;;;;;;;;;;5014114;28;20037;-86
2024/04/01 09:34:58;;;;;;;0.10;0.10;;;;;;;;;;5011132;28;20061;-86
2024/04/01 09:37:24;;;;;;;;;;;;;;;;;;5030250;28;20121;-85
2024/04/01 09:39:52;;;;;;;0.20;0.20;;;;;;;;;;5013910;28;19996;-86
2024/04/01 09:42:18;;;;;;;0.10;0.10;;;;;;;;;;5013894;28;20488;-87
2024/04/01 09:44:44;;;;;;;0.10;0.10;;;;;;;;;;4997315;28;20181;-87
2024/04/01 09:47:10;;;;;;;0.10;0.10;;;;;;;;;;5017146;28;20140;-87
2024/04/01 09:49:36;;;;;;;0.20;0.20;;;;;;;;;;5000663;28;20046;-87
2024/04/01 09:52:02;;;;;;;0.17;0.17;;;;;;;;;;5017001;28;20128;-84
2024/04/01 09:54:28;;;;;;;0.20;0.20;;;;;;;;;;5018235;28;20042;-89
2024/04/01 09:57:13;;;;;;;0.10;0.10;;;;;;;;;;5017480;28;20099;-86
2024/04/01 09:59:58;;;;;;;0.30;0.30;;;;;;;;;;5016951;28;20041;-84
2024/04/01 10:02:30;;;;;;;0.10;0.10;;;;;;;;;;5033325;28;20041;-84
2024/04/01 10:05:08;;;;;;;0.10;0.10;;;;;;;;;;5016828;28;20080;-84
2024/04/01 10:07:37;;;;;;;0.20;0.20;;;;;;;;;;5033655;28;20099;-84
2024/04/01 10:10:06;;;;;;;0.10;0.10;;;;;;;;;;5033160;28;20077;-84
2024/04/01 10:12:32;;;;;;;0.20;0.20;;;;;;;;;;5033057;28;20420;-85
2024/04/01 10:15:04;;;;;;;0.10;0.10;;;;;;;;;;5033201;28;20492;-85
2024/04/01 10:17:30;;;;;;;0.10;0.10;;;;;;;;;;5016615;28;20484;-88
2024/04/01 10:20:15;;;;;;;0.10;0.10;;;;;;;;;;5033211;28;20076;-88
2024/04/01 10:22:44;;;;;;;0.20;0.20;;;;;;;;;;5033292;28;20044;-88
2024/04/01 10:25:29;;;;;;;0.20;0.20;;;;;;;;;;5033395;28;20045;-90
2024/04/01 10:28:01;;;;;;;0.10;0.10;;;;;;;;;;5033493;28;20302;-88
2024/04/01 10:30:46;;;;;;;0.13;0.13;;;;;;;;;;5033171;28;20041;-90
2024/04/01 10:33:31;;;;;;;0.10;0.10;;;;;;;;;;5017299;28;20041;-91
2024/04/01 10:36:00;;;;;;;0.20;0.20;;;;;;;;;;5018822;28;20033;-88
2024/04/01 10:38:44;;;;;;;0.10;0.10;;;;;;;;;;5033682;28;20136;-89
2024/04/01 10:41:19;;;;;;;0.10;0.10;;;;;;;;;;5016212;28;20485;-88
2024/04/01 10:43:54;;;;;;;0.10;0.10;;;;;;;;;;5016199;28;20045;-88
2024/04/01 10:46:39;;;;;;;0.10;0.10;;;;;;;;;;4999967;28;20075;-88
2024/04/01 10:49:31;;;;;;;0.50;0.30;;;;;;;;;;5015876;28;20397;-88
2024/04/01 10:52:16;;;;;;;0.10;0.10;;;;;;;;;;5010211;28;20049;-89
2024/04/01 10:55:01;;;;;;;0.20;0.20;;;;;;;;;;5033001;28;20047;-88
2024/04/01 10:57:46;;;;;;;0.20;0.20;;;;;;;;;;5031933;28;20099;-88
2024/04/01 11:00:15;;;;;;;0.10;0.10;;;;;;;;;;5032795;28;20042;-89
2024/04/01 11:02:50;;;;;;;0.10;0.10;;;;;;;;;;5015769;28;20048;-87
2024/04/01 11:05:22;;;;;;;0.10;0.10;;;;;;;;;;5016267;28;20048;-88
2024/04/01 11:07:55;;;;;;;0.20;0.20;;;;;;;;;;5032081;28;20044;-85
2024/04/01 11:10:31;;;;;;;0.88;0.20;;;;;;;;;;4999310;28;20038;-85
2024/04/01 11:13:04;;;;;;;0.20;0.20;;;;;;;;;;5031894;28;20259;-87
2024/04/01 11:15:30;;;;;;;0.10;0.10;;;;;;;;;;5032203;28;20060;-86
2024/04/01 11:18:16;;;;;;;0.10;0.10;;;;;;;;;;5015754;28;20042;-86
2024/04/01 11:20:56;;;;;;;0.10;0.10;;;;;;;;;;5031496;28;20507;-86
2024/04/01 11:23:22;;;;;;;0.20;0.20;;;;;;;;;;5015459;28;20041;-87
2024/04/01 11:25:48;;;;;;;0.20;0.20;;;;;;;;;;5015550;28;20067;-86
2024/04/01 11:28:20;;;;;;;0.20;0.20;;;;;;;;;;5015272;28;20041;-85
2024/04/01 11:30:46;;;;;;;0.20;0.20;;;;;;;;;;5031625;28;20041;-86
2024/04/01 11:33:14;;;;;;;1.15;0.50;;;;;;;;;;5015311;28;20362;-87
2024/04/01 11:35:40;;;;;;;0.30;0.30;;;;;;;;;;5015247;28;20496;-86
2024/04/01 11:38:17;;;;;;;0.50;0.50;;;;;;;;;;5031406;28;20037;-86
2024/04/01 11:40:44;;;;;;;0.20;0.20;;;;;;;;;;5015196;28;20103;-86
2024/04/01 11:43:10;;;;;;;0.20;0.20;;;;;;;;;;5015159;28;20095;-87
2024/04/01 11:45:41;;;;;;;0.20;0.20;;;;;;;;;;5015080;28;20037;-84
2024/04/01 11:48:08;;;;;;;0.10;0.10;;;;;;;;;;5015590;28;20144;-85
2024/04/01 11:50:35;;;;;;;0.32;0.30;;;;;;;;;;5014830;28;20041;-86
2024/04/01 11:53:01;;;;;;;0.28;0.28;;;;;;;;;;4998756;28;20123;-86
2024/04/01 11:55:28;;;;;;;0.43;0.43;;;;;;;;;;4998565;28;20135;-86
2024/04/01 11:57:54;;;;;;;0.43;0.43;;;;;;;;;;5031174;28;20048;-85
2024/04/01 12:00:20;;;;;;;0.40;0.40;;;;;;;;;;5014858;28;20572;-86
2024/04/01 12:02:55;;;;;;;0.77;0.38;;;;;;;;;;5014717;28;20076;-86
2024/04/01 12:05:21;;;;;;;0.20;0.20;;;;;;;;;;5015161;28;20083;-86
2024/04/01 12:07:49;;;;;;;0.17;0.17;;;;;;;;;;4998739;28;20051;-86
2024/04/01 12:10:15;;;;;;;0.38;0.35;;;;;;;;;;5013808;28;20044;-86
2024/04/01 12:12:41;;;;;;;0.25;0.25;;;;;;;;;;5015024;28;20037;-86
2024/04/01 12:15:08;;;;;;;0.10;0.10;;;;;;;;;;5014654;28;20037;-87
2024/04/01 12:17:34;;;;;;;0.25;0.25;;;;;;;;;;4998206;28;20493;-86
2024/04/01 12:20:00;;;;;;;0.38;0.28;;;;;;;;;;4998422;28;20070;-85
2024/04/01 12:22:26;;;;;;;0.65;0.55;;;;;;;;;;4998433;28;20076;-86
2024/04/01 12:24:53;;;;;;;0.57;0.57;;;;;;;;;;5031917;28;20204;-85
2024/04/01 12:27:19;;;;;;;0.20;0.20;;;;;;;;;;5014620;28;20553;-86
2024/04/01 12:29:45;;;;;;;0.70;0.30;;;;;;;;;;5014407;28;20045;-84
2024/04/01 12:32:11;;;;;;;0.10;0.10;;;;;;;;;;5030619;28;20116;-82
2024/04/01 12:34:38;;;;;;;0.55;0.30;;;;;;;;;;5014589;28;20038;-87
2024/04/01 12:37:04;;;;;;;0.10;0.10;;;;;;;;;;4999553;28;20049;-88
2024/04/01 12:39:30;;;;;;;0.28;0.20;;;;;;;;;;5015186;28;20555;-88
2024/04/01 12:41:57;;;;;;;0.47;0.30;;;;;;;;;;5014650;28;20037;-87
2024/04/01 12:44:23;;;;;;;0.20;0.20;;;;;;;;;;5030857;28;20519;-87
2024/04/01 12:46:49;;;;;;;0.32;0.32;;;;;;;;;;5014347;28;20073;-87
2024/04/01 12:49:16;;;;;;;0.28;0.28;;;;;;;;;;4997713;28;20128;-86
2024/04/01 12:51:42;;;;;;;0.17;0.17;;;;;;;;;;5014582;28;20049;-87
2024/04/01 12:54:28;;;;;;;0.10;0.10;;;;;;;;;;5014640;28;20037;-87
2024/04/01 12:57:04;;;;;;;0.10;0.10;;;;;;;;;;5031499;28;20081;-85
2024/04/01 12:59:30;;;;;;;0.55;0.55;;;;;;;;;;5016485;28;20105;-90
2024/04/01 13:02:04;;;;;;;0.25;0.20;;;;;;;;;;5032162;28;20079;-92
2024/04/01 13:04:30;;;;;;;0.30;0.30;;;;;;;;;;5034434;28;20125;-87
2024/04/01 13:07:00;;;;;;;0.20;0.20;;;;;;;;;;5030832;28;20528;-88
2024/04/01 13:09:52;;;;;;;0.30;0.30;;;;;;;;;;5030367;28;20535;-87
2024/04/01 13:12:30;;;;;;;0.50;0.35;;;;;;;;;;5029225;28;20079;-88
2024/04/01 13:15:00;;;;;;;0.93;0.40;;;;;;;;;;5015890;28;20045;-88
2024/04/01 13:17:47;;;;;;;0.17;0.17;;;;;;;;;;5015188;28;20602;-89
2024/04/01 13:20:15;;;;;;;0.10;0.10;;;;;;;;;;5031970;28;20041;-87
2024/04/01 13:22:44;;;;;;;0.17;0.17;;;;;;;;;;5019238;28;20049;-92
2024/04/01 13:25:14;;;;;;;0.10;0.10;;;;;;;;;;5018811;28;20045;-88
2024/04/01 13:27:40;;;;;;;0.20;0.20;;;;;;;;;;5019102;28;20051;-87
2024/04/01 13:30:16;;;;;;;0.30;0.30;;;;;;;;;;5035458;28;20128;-88
2024/04/01 13:33:03;;;;;;;0.40;0.40;;;;;;;;;;5018957;28;20045;-88
2024/04/01 13:35:44;;;;;;;0.75;0.68;;;;;;;;;;5017910;28;20377;-87
2024/04/01 13:38:19;;;;;;;0.30;0.30;;;;;;;;;;5033936;28;20041;-88
2024/04/01 13:40:54;;;;;;;0.28;0.28;;;;;;;;;;5034582;28;20041;-88
2024/04/01 13:43:25;;;;;;;0.25;0.25;;;;;;;;;;5034425;28;20049;-88
2024/04/01 13:46:00;;;;;;;0.85;0.40;;;;;;;;;;5018256;28;20083;-88
2024/04/01 13:48:42;;;;;;;0.30;0.30;;;;;;;;;;5034202;28;20469;-87
2024/04/01 13:51:11;;;;;;;0.73;0.63;;;;;;;;;;5034086;28;20057;-89
2024/04/01 13:53:40;;;;;;;0.28;0.28;;;;;;;;;;5017895;28;20045;-88
2024/04/01 13:56:12;;;;;;;0.22;0.22;;;;;;;;;;5034150;28;20033;-88
2024/04/01 13:58:50;;;;;;;0.50;0.50;;;;;;;;;;5034807;28;20045;-88
2024/04/01 14:01:25;;;;;;;0.20;0.20;;;;;;;;;;5034286;28;20037;-88
2024/04/01 14:04:10;;;;;;;0.20;0.20;;;;;;;;;;5033815;28;20116;-89
2024/04/01 14:06:48;;;;;;;0.25;0.25;;;;;;;;;;5018108;28;20095;-90
2024/04/01 14:09:22;;;;;;;0.22;0.22;;;;;;;;;;5033667;28;20037;-88
2024/04/01 14:11:51;;;;;;;0.20;0.20;;;;;;;;;;5017146;28;20112;-88
2024/04/01 14:14:32;;;;;;;0.10;0.10;;;;;;;;;;5033290;28;20485;-90
2024/04/01 14:17:03;;;;;;;0.10;0.10;;;;;;;;;;5017112;28;20069;-89
2024/04/01 14:19:35;;;;;;;0.20;0.20;;;;;;;;;;5017081;28;20041;-89
2024/04/01 14:22:01;;;;;;;0.20;0.20;;;;;;;;;;5016726;28;20414;-87
2024/04/01 14:24:27;;;;;;;0.32;0.32;;;;;;;;;;5000459;28;20060;-87
2024/04/01 14:26:53;;;;;;;0.40;0.35;;;;;;;;;;5000426;28;20185;-88
2024/04/01 14:29:19;;;;;;;0.20;0.17;;;;;;;;;;5016466;28;20076;-85
2024/04/01 14:31:45;;;;;;;0.30;0.30;;;;;;;;;;5031975;28;20128;-87
2024/04/01 14:34:11;;;;;;;0.20;0.20;;;;;;;;;;5016437;28;20451;-85
2024/04/01 14:36:37;;;;;;;0.30;0.30;;;;;;;;;;5016463;28;20041;-86
2024/04/01 14:39:03;;;;;;;0.10;0.10;;;;;;;;;;5032873;28;20493;-86
2024/04/01 14:41:32;;;;;;;0.20;0.20;;;;;;;;;;5016215;28;20496;-86
2024/04/01 14:43:58;;;;;;;0.10;0.10;;;;;;;;;;5032616;28;20041;-87
2024/04/01 14:46:26;;;;;;;0.10;0.10;;;;;;;;;;5016308;28;20048;-87
2024/04/01 14:48:52;;;;;;;0.10;0.10;;;;;;;;;;5014856;28;20049;-86